sensor_id;sensor_type;location;lat;lon;timestamp;P1;durP1;ratioP1;P2;durP2;ratioP2
72951;SDS011;61102;51.956;5.878;2022-12-10T00:01:35;11.38;;;3.30;;
72951;SDS011;61102;51.956;5.878;2022-12-10T00:04:02;13.63;;;3.63;;
72951;SDS011;61102;51.956;5.878;2022-12-10T00:06:31;13.00;;;3.40;;
72951;SDS011;61102;51.956;5.878;2022-12-10T00:08:58;13.13;;;3.80;;
72951;SDS011;61102;51.956;5.878;2022-12-10T00:11:26;16.67;;;5.15;;
72951;SDS011;61102;51.956;5.878;2022-12-10T00:13:52;13.95;;;3.63;;
72951;SDS011;61102;51.956;5.878;2022-12-10T00:16:19;12.70;;;3.50;;
72951;SDS011;61102;51.956;5.878;2022-12-10T00:18:47;17.48;;;4.75;;
72951;SDS011;61102;51.956;5.878;2022-12-10T00:21:15;15.07;;;5.13;;
72951;SDS011;61102;51.956;5.878;2022-12-10T00:23:43;18.60;;;6.18;;
72951;SDS011;61102;51.956;5.878;2022-12-10T00:26:14;13.50;;;3.72;;
72951;SDS011;61102;51.956;5.878;2022-12-10T00:28:43;11.07;;;3.40;;
72951;SDS011;61102;51.956;5.878;2022-12-10T00:31:11;11.50;;;3.13;;
72951;SDS011;61102;51.956;5.878;2022-12-10T00:33:39;13.35;;;3.42;;
72951;SDS011;61102;51.956;5.878;2022-12-10T00:36:08;13.25;;;3.55;;
72951;SDS011;61102;51.956;5.878;2022-12-10T00:38:37;11.60;;;3.33;;
72951;SDS011;61102;51.956;5.878;2022-12-10T00:41:04;11.65;;;3.60;;
72951;SDS011;61102;51.956;5.878;2022-12-10T00:43:32;15.82;;;3.95;;
72951;SDS011;61102;51.956;5.878;2022-12-10T00:45:59;11.25;;;3.25;;
72951;SDS011;61102;51.956;5.878;2022-12-10T00:48:26;14.27;;;3.75;;
72951;SDS011;61102;51.956;5.878;2022-12-10T00:50:56;11.85;;;3.33;;
72951;SDS011;61102;51.956;5.878;2022-12-10T00:53:30;10.45;;;3.38;;
72951;SDS011;61102;51.956;5.878;2022-12-10T00:55:57;10.13;;;2.60;;
72951;SDS011;61102;51.956;5.878;2022-12-10T00:58:23;10.98;;;3.10;;
72951;SDS011;61102;51.956;5.878;2022-12-10T01:00:52;12.20;;;3.53;;
72951;SDS011;61102;51.956;5.878;2022-12-10T01:03:18;14.35;;;4.25;;
72951;SDS011;61102;51.956;5.878;2022-12-10T01:05:44;12.07;;;3.17;;
72951;SDS011;61102;51.956;5.878;2022-12-10T01:08:11;10.43;;;2.63;;
72951;SDS011;61102;51.956;5.878;2022-12-10T01:10:37;13.68;;;3.55;;
72951;SDS011;61102;51.956;5.878;2022-12-10T01:13:03;14.02;;;3.80;;
72951;SDS011;61102;51.956;5.878;2022-12-10T01:15:30;13.23;;;3.67;;
72951;SDS011;61102;51.956;5.878;2022-12-10T01:17:56;13.85;;;3.22;;
72951;SDS011;61102;51.956;5.878;2022-12-10T01:20:22;12.02;;;3.17;;
72951;SDS011;61102;51.956;5.878;2022-12-10T01:22:48;14.68;;;3.85;;
72951;SDS011;61102;51.956;5.878;2022-12-10T01:25:15;11.70;;;3.38;;
72951;SDS011;61102;51.956;5.878;2022-12-10T01:27:41;13.00;;;3.58;;
72951;SDS011;61102;51.956;5.878;2022-12-10T01:30:07;10.70;;;3.20;;
72951;SDS011;61102;51.956;5.878;2022-12-10T01:32:35;13.48;;;3.50;;
72951;SDS011;61102;51.956;5.878;2022-12-10T01:35:02;10.95;;;3.13;;
72951;SDS011;61102;51.956;5.878;2022-12-10T01:37:28;12.88;;;3.22;;
72951;SDS011;61102;51.956;5.878;2022-12-10T01:39:54;12.18;;;3.22;;
72951;SDS011;61102;51.956;5.878;2022-12-10T01:42:20;12.93;;;3.75;;
72951;SDS011;61102;51.956;5.878;2022-12-10T01:47:12;12.75;;;3.80;;
72951;SDS011;61102;51.956;5.878;2022-12-10T01:49:39;11.90;;;2.88;;
72951;SDS011;61102;51.956;5.878;2022-12-10T01:52:09;15.82;;;3.72;;
72951;SDS011;61102;51.956;5.878;2022-12-10T01:54:38;12.02;;;3.10;;
72951;SDS011;61102;51.956;5.878;2022-12-10T01:57:09;11.15;;;3.10;;
72951;SDS011;61102;51.956;5.878;2022-12-10T01:59:40;12.98;;;3.25;;
72951;SDS011;61102;51.956;5.878;2022-12-10T02:02:13;15.05;;;4.13;;
72951;SDS011;61102;51.956;5.878;2022-12-10T02:15:44;10.85;;;3.00;;
72951;SDS011;61102;51.956;5.878;2022-12-10T02:21:07;11.50;;;3.38;;
72951;SDS011;61102;51.956;5.878;2022-12-10T02:23:40;13.57;;;3.05;;
72951;SDS011;61102;51.956;5.878;2022-12-10T02:31:39;10.88;;;3.03;;
72951;SDS011;61102;51.956;5.878;2022-12-10T02:34:09;11.02;;;3.05;;
72951;SDS011;61102;51.956;5.878;2022-12-10T02:36:37;13.95;;;3.95;;
72951;SDS011;61102;51.956;5.878;2022-12-10T02:39:10;14.18;;;3.58;;
72951;SDS011;61102;51.956;5.878;2022-12-10T02:41:47;12.18;;;3.25;;
72951;SDS011;61102;51.956;5.878;2022-12-10T02:44:19;14.57;;;3.85;;
72951;SDS011;61102;51.956;5.878;2022-12-10T02:46:47;12.70;;;3.13;;
72951;SDS011;61102;51.956;5.878;2022-12-10T02:49:19;10.82;;;2.88;;
72951;SDS011;61102;51.956;5.878;2022-12-10T02:51:47;14.63;;;3.30;;
72951;SDS011;61102;51.956;5.878;2022-12-10T02:57:11;10.80;;;3.13;;
72951;SDS011;61102;51.956;5.878;2022-12-10T03:00:08;12.13;;;3.30;;
72951;SDS011;61102;51.956;5.878;2022-12-10T03:07:47;13.65;;;3.35;;
72951;SDS011;61102;51.956;5.878;2022-12-10T03:10:24;10.70;;;2.70;;
72951;SDS011;61102;51.956;5.878;2022-12-10T03:13:04;10.60;;;2.90;;
72951;SDS011;61102;51.956;5.878;2022-12-10T03:15:34;14.88;;;3.50;;
72951;SDS011;61102;51.956;5.878;2022-12-10T03:18:06;14.13;;;4.40;;
72951;SDS011;61102;51.956;5.878;2022-12-10T03:20:36;14.07;;;3.60;;
72951;SDS011;61102;51.956;5.878;2022-12-10T03:23:05;13.38;;;3.13;;
72951;SDS011;61102;51.956;5.878;2022-12-10T03:25:35;12.40;;;3.65;;
72951;SDS011;61102;51.956;5.878;2022-12-10T03:28:03;15.13;;;4.80;;
72951;SDS011;61102;51.956;5.878;2022-12-10T03:30:36;9.23;;;2.72;;
72951;SDS011;61102;51.956;5.878;2022-12-10T03:33:04;11.93;;;3.00;;
72951;SDS011;61102;51.956;5.878;2022-12-10T03:35:30;15.25;;;4.20;;
72951;SDS011;61102;51.956;5.878;2022-12-10T03:37:57;13.25;;;3.85;;
72951;SDS011;61102;51.956;5.878;2022-12-10T03:40:24;13.85;;;2.97;;
72951;SDS011;61102;51.956;5.878;2022-12-10T03:42:51;13.70;;;3.25;;
72951;SDS011;61102;51.956;5.878;2022-12-10T03:45:17;14.80;;;4.25;;
72951;SDS011;61102;51.956;5.878;2022-12-10T03:47:43;17.83;;;5.00;;
72951;SDS011;61102;51.956;5.878;2022-12-10T03:50:09;14.35;;;3.95;;
72951;SDS011;61102;51.956;5.878;2022-12-10T03:52:35;14.50;;;3.75;;
72951;SDS011;61102;51.956;5.878;2022-12-10T03:55:01;12.85;;;3.65;;
72951;SDS011;61102;51.956;5.878;2022-12-10T03:57:28;13.90;;;3.40;;
72951;SDS011;61102;51.956;5.878;2022-12-10T03:59:54;13.40;;;3.45;;
72951;SDS011;61102;51.956;5.878;2022-12-10T04:02:20;13.07;;;3.70;;
72951;SDS011;61102;51.956;5.878;2022-12-10T04:04:46;13.30;;;3.58;;
72951;SDS011;61102;51.956;5.878;2022-12-10T04:07:13;12.65;;;2.95;;
72951;SDS011;61102;51.956;5.878;2022-12-10T04:09:39;14.65;;;4.15;;
72951;SDS011;61102;51.956;5.878;2022-12-10T04:12:05;15.23;;;3.70;;
72951;SDS011;61102;51.956;5.878;2022-12-10T04:14:31;13.48;;;3.83;;
72951;SDS011;61102;51.956;5.878;2022-12-10T04:17:16;13.15;;;3.38;;
72951;SDS011;61102;51.956;5.878;2022-12-10T04:19:42;14.00;;;4.40;;
72951;SDS011;61102;51.956;5.878;2022-12-10T04:22:09;13.32;;;3.63;;
72951;SDS011;61102;51.956;5.878;2022-12-10T04:24:54;11.88;;;3.20;;
72951;SDS011;61102;51.956;5.878;2022-12-10T04:27:39;12.27;;;3.70;;
72951;SDS011;61102;51.956;5.878;2022-12-10T04:30:06;20.13;;;6.00;;
72951;SDS011;61102;51.956;5.878;2022-12-10T04:32:35;12.82;;;3.75;;
72951;SDS011;61102;51.956;5.878;2022-12-10T04:35:01;16.85;;;5.13;;
72951;SDS011;61102;51.956;5.878;2022-12-10T04:37:27;12.35;;;3.58;;
72951;SDS011;61102;51.956;5.878;2022-12-10T04:39:54;15.38;;;4.40;;
72951;SDS011;61102;51.956;5.878;2022-12-10T04:42:20;18.52;;;5.72;;
72951;SDS011;61102;51.956;5.878;2022-12-10T04:44:47;17.70;;;5.30;;
72951;SDS011;61102;51.956;5.878;2022-12-10T04:49:43;15.52;;;3.95;;
72951;SDS011;61102;51.956;5.878;2022-12-10T04:52:10;19.63;;;6.03;;
72951;SDS011;61102;51.956;5.878;2022-12-10T04:54:40;18.52;;;5.13;;
72951;SDS011;61102;51.956;5.878;2022-12-10T04:57:07;16.80;;;4.65;;
72951;SDS011;61102;51.956;5.878;2022-12-10T04:59:37;15.75;;;4.65;;
72951;SDS011;61102;51.956;5.878;2022-12-10T05:02:03;17.17;;;5.05;;
72951;SDS011;61102;51.956;5.878;2022-12-10T05:04:30;23.55;;;7.15;;
72951;SDS011;61102;51.956;5.878;2022-12-10T05:06:56;18.20;;;5.68;;
72951;SDS011;61102;51.956;5.878;2022-12-10T05:09:24;23.55;;;6.90;;
72951;SDS011;61102;51.956;5.878;2022-12-10T05:11:50;18.88;;;5.45;;
72951;SDS011;61102;51.956;5.878;2022-12-10T05:14:16;20.25;;;5.80;;
72951;SDS011;61102;51.956;5.878;2022-12-10T05:16:43;17.88;;;5.78;;
72951;SDS011;61102;51.956;5.878;2022-12-10T05:19:09;25.60;;;7.80;;
72951;SDS011;61102;51.956;5.878;2022-12-10T05:21:36;23.00;;;6.30;;
72951;SDS011;61102;51.956;5.878;2022-12-10T05:24:21;20.83;;;5.30;;
72951;SDS011;61102;51.956;5.878;2022-12-10T05:26:47;20.15;;;5.75;;
72951;SDS011;61102;51.956;5.878;2022-12-10T05:29:16;23.85;;;7.57;;
72951;SDS011;61102;51.956;5.878;2022-12-10T05:31:43;27.00;;;8.68;;
72951;SDS011;61102;51.956;5.878;2022-12-10T05:34:09;22.23;;;6.28;;
72951;SDS011;61102;51.956;5.878;2022-12-10T05:36:36;20.58;;;5.47;;
72951;SDS011;61102;51.956;5.878;2022-12-10T05:39:02;30.38;;;8.55;;
72951;SDS011;61102;51.956;5.878;2022-12-10T05:41:30;26.23;;;7.28;;
72951;SDS011;61102;51.956;5.878;2022-12-10T05:43:59;16.95;;;4.88;;
72951;SDS011;61102;51.956;5.878;2022-12-10T05:46:27;23.90;;;6.38;;
72951;SDS011;61102;51.956;5.878;2022-12-10T05:48:55;32.20;;;6.38;;
72951;SDS011;61102;51.956;5.878;2022-12-10T05:51:24;32.53;;;7.32;;
72951;SDS011;61102;51.956;5.878;2022-12-10T05:53:52;23.10;;;6.25;;
72951;SDS011;61102;51.956;5.878;2022-12-10T05:56:20;26.30;;;6.70;;
72951;SDS011;61102;51.956;5.878;2022-12-10T05:58:49;23.35;;;5.90;;
72951;SDS011;61102;51.956;5.878;2022-12-10T06:01:17;29.60;;;6.82;;
72951;SDS011;61102;51.956;5.878;2022-12-10T06:03:45;43.30;;;7.30;;
72951;SDS011;61102;51.956;5.878;2022-12-10T06:06:12;25.30;;;6.05;;
72951;SDS011;61102;51.956;5.878;2022-12-10T06:08:38;45.08;;;8.20;;
72951;SDS011;61102;51.956;5.878;2022-12-10T06:13:36;28.23;;;5.32;;
72951;SDS011;61102;51.956;5.878;2022-12-10T06:16:04;31.92;;;6.63;;
72951;SDS011;61102;51.956;5.878;2022-12-10T06:18:31;29.02;;;6.60;;
72951;SDS011;61102;51.956;5.878;2022-12-10T06:20:57;27.20;;;7.22;;
72951;SDS011;61102;51.956;5.878;2022-12-10T06:23:23;27.13;;;6.32;;
72951;SDS011;61102;51.956;5.878;2022-12-10T06:25:49;29.23;;;7.10;;
72951;SDS011;61102;51.956;5.878;2022-12-10T06:28:15;65.60;;;13.30;;
72951;SDS011;61102;51.956;5.878;2022-12-10T06:30:41;27.08;;;6.20;;
72951;SDS011;61102;51.956;5.878;2022-12-10T06:33:07;23.05;;;5.45;;
72951;SDS011;61102;51.956;5.878;2022-12-10T06:35:33;22.80;;;5.43;;
72951;SDS011;61102;51.956;5.878;2022-12-10T06:37:59;26.38;;;6.47;;
72951;SDS011;61102;51.956;5.878;2022-12-10T06:40:25;26.10;;;6.22;;
72951;SDS011;61102;51.956;5.878;2022-12-10T06:42:51;27.40;;;5.47;;
72951;SDS011;61102;51.956;5.878;2022-12-10T06:45:18;48.00;;;8.13;;
72951;SDS011;61102;51.956;5.878;2022-12-10T06:47:44;29.27;;;6.82;;
72951;SDS011;61102;51.956;5.878;2022-12-10T06:50:10;18.33;;;4.63;;
72951;SDS011;61102;51.956;5.878;2022-12-10T06:52:36;23.23;;;5.78;;
72951;SDS011;61102;51.956;5.878;2022-12-10T06:55:02;32.92;;;6.70;;
72951;SDS011;61102;51.956;5.878;2022-12-10T06:57:28;36.58;;;6.55;;
72951;SDS011;61102;51.956;5.878;2022-12-10T06:59:55;27.30;;;6.13;;
72951;SDS011;61102;51.956;5.878;2022-12-10T07:02:21;31.00;;;7.50;;
72951;SDS011;61102;51.956;5.878;2022-12-10T07:04:47;24.80;;;5.20;;
72951;SDS011;61102;51.956;5.878;2022-12-10T07:07:13;26.30;;;6.03;;
72951;SDS011;61102;51.956;5.878;2022-12-10T07:09:39;29.15;;;6.43;;
72951;SDS011;61102;51.956;5.878;2022-12-10T07:12:05;28.55;;;5.07;;
72951;SDS011;61102;51.956;5.878;2022-12-10T07:14:31;29.30;;;7.57;;
72951;SDS011;61102;51.956;5.878;2022-12-10T07:16:58;21.00;;;5.13;;
72951;SDS011;61102;51.956;5.878;2022-12-10T07:19:25;29.83;;;9.05;;
72951;SDS011;61102;51.956;5.878;2022-12-10T07:21:51;27.45;;;7.93;;
72951;SDS011;61102;51.956;5.878;2022-12-10T07:24:17;28.98;;;8.10;;
72951;SDS011;61102;51.956;5.878;2022-12-10T07:26:44;21.58;;;6.18;;
72951;SDS011;61102;51.956;5.878;2022-12-10T07:29:15;25.95;;;7.03;;
72951;SDS011;61102;51.956;5.878;2022-12-10T07:31:43;29.05;;;6.82;;
72951;SDS011;61102;51.956;5.878;2022-12-10T07:34:10;31.15;;;8.25;;
72951;SDS011;61102;51.956;5.878;2022-12-10T07:36:37;26.60;;;6.22;;
72951;SDS011;61102;51.956;5.878;2022-12-10T07:39:04;25.30;;;5.68;;
72951;SDS011;61102;51.956;5.878;2022-12-10T07:41:31;22.77;;;6.10;;
72951;SDS011;61102;51.956;5.878;2022-12-10T07:43:58;20.58;;;5.50;;
72951;SDS011;61102;51.956;5.878;2022-12-10T07:46:25;22.45;;;4.97;;
72951;SDS011;61102;51.956;5.878;2022-12-10T07:48:53;21.80;;;5.18;;
72951;SDS011;61102;51.956;5.878;2022-12-10T07:51:21;18.33;;;4.28;;
72951;SDS011;61102;51.956;5.878;2022-12-10T07:53:48;25.20;;;5.75;;
72951;SDS011;61102;51.956;5.878;2022-12-10T07:56:16;22.42;;;5.55;;
72951;SDS011;61102;51.956;5.878;2022-12-10T07:58:43;15.00;;;4.18;;
72951;SDS011;61102;51.956;5.878;2022-12-10T08:01:12;21.48;;;5.03;;
72951;SDS011;61102;51.956;5.878;2022-12-10T08:03:40;17.85;;;4.18;;
72951;SDS011;61102;51.956;5.878;2022-12-10T08:06:07;20.33;;;5.43;;
72951;SDS011;61102;51.956;5.878;2022-12-10T08:08:39;33.67;;;7.88;;
72951;SDS011;61102;51.956;5.878;2022-12-10T08:11:06;27.23;;;7.80;;
72951;SDS011;61102;51.956;5.878;2022-12-10T08:13:33;22.42;;;6.18;;
72951;SDS011;61102;51.956;5.878;2022-12-10T08:16:01;41.15;;;8.10;;
72951;SDS011;61102;51.956;5.878;2022-12-10T08:18:31;22.45;;;5.72;;
72951;SDS011;61102;51.956;5.878;2022-12-10T08:21:02;22.45;;;5.88;;
72951;SDS011;61102;51.956;5.878;2022-12-10T08:23:30;34.00;;;8.18;;
72951;SDS011;61102;51.956;5.878;2022-12-10T08:25:56;32.92;;;6.53;;
72951;SDS011;61102;51.956;5.878;2022-12-10T08:28:22;24.77;;;6.35;;
72951;SDS011;61102;51.956;5.878;2022-12-10T08:30:49;21.40;;;5.60;;
72951;SDS011;61102;51.956;5.878;2022-12-10T08:33:15;32.88;;;7.13;;
72951;SDS011;61102;51.956;5.878;2022-12-10T08:35:41;37.10;;;8.68;;
72951;SDS011;61102;51.956;5.878;2022-12-10T08:38:07;27.02;;;6.40;;
72951;SDS011;61102;51.956;5.878;2022-12-10T08:40:33;25.23;;;6.28;;
72951;SDS011;61102;51.956;5.878;2022-12-10T08:43:00;25.20;;;5.80;;
72951;SDS011;61102;51.956;5.878;2022-12-10T08:45:26;23.92;;;4.95;;
72951;SDS011;61102;51.956;5.878;2022-12-10T08:47:52;26.00;;;5.70;;
72951;SDS011;61102;51.956;5.878;2022-12-10T08:50:18;26.45;;;5.45;;
72951;SDS011;61102;51.956;5.878;2022-12-10T08:52:44;24.33;;;5.65;;
72951;SDS011;61102;51.956;5.878;2022-12-10T08:55:10;22.58;;;5.47;;
72951;SDS011;61102;51.956;5.878;2022-12-10T08:57:36;18.80;;;4.75;;
72951;SDS011;61102;51.956;5.878;2022-12-10T09:00:02;25.27;;;6.10;;
72951;SDS011;61102;51.956;5.878;2022-12-10T09:02:29;21.50;;;4.60;;
72951;SDS011;61102;51.956;5.878;2022-12-10T09:04:55;20.75;;;4.90;;
72951;SDS011;61102;51.956;5.878;2022-12-10T09:07:21;30.33;;;6.63;;
72951;SDS011;61102;51.956;5.878;2022-12-10T09:09:47;23.05;;;5.28;;
72951;SDS011;61102;51.956;5.878;2022-12-10T09:12:13;33.20;;;7.28;;
72951;SDS011;61102;51.956;5.878;2022-12-10T09:14:39;28.52;;;6.10;;
72951;SDS011;61102;51.956;5.878;2022-12-10T09:17:07;21.10;;;5.72;;
72951;SDS011;61102;51.956;5.878;2022-12-10T09:19:34;29.13;;;7.45;;
72951;SDS011;61102;51.956;5.878;2022-12-10T09:22:00;21.70;;;6.78;;
72951;SDS011;61102;51.956;5.878;2022-12-10T09:24:26;23.55;;;6.90;;
72951;SDS011;61102;51.956;5.878;2022-12-10T09:26:52;23.27;;;6.30;;
72951;SDS011;61102;51.956;5.878;2022-12-10T09:29:18;33.00;;;6.15;;
72951;SDS011;61102;51.956;5.878;2022-12-10T09:31:44;23.23;;;5.47;;
72951;SDS011;61102;51.956;5.878;2022-12-10T09:34:10;35.17;;;6.78;;
72951;SDS011;61102;51.956;5.878;2022-12-10T09:36:37;23.15;;;5.32;;
72951;SDS011;61102;51.956;5.878;2022-12-10T09:39:03;25.85;;;6.35;;
72951;SDS011;61102;51.956;5.878;2022-12-10T09:47:04;24.08;;;5.13;;
72951;SDS011;61102;51.956;5.878;2022-12-10T09:52:24;29.00;;;5.97;;
72951;SDS011;61102;51.956;5.878;2022-12-10T09:54:59;28.10;;;5.80;;
72951;SDS011;61102;51.956;5.878;2022-12-10T09:57:32;21.98;;;5.03;;
72951;SDS011;61102;51.956;5.878;2022-12-10T10:00:06;37.13;;;7.00;;
72951;SDS011;61102;51.956;5.878;2022-12-10T10:02:44;23.35;;;5.93;;
72951;SDS011;61102;51.956;5.878;2022-12-10T10:08:19;25.42;;;6.78;;
72951;SDS011;61102;51.956;5.878;2022-12-10T10:10:54;26.65;;;5.60;;
72951;SDS011;61102;51.956;5.878;2022-12-10T10:15:50;34.03;;;6.97;;
72951;SDS011;61102;51.956;5.878;2022-12-10T10:21:04;29.05;;;5.97;;
72951;SDS011;61102;51.956;5.878;2022-12-10T10:23:32;32.10;;;6.63;;
72951;SDS011;61102;51.956;5.878;2022-12-10T10:25:59;17.50;;;3.92;;
72951;SDS011;61102;51.956;5.878;2022-12-10T10:28:25;28.98;;;7.70;;
72951;SDS011;61102;51.956;5.878;2022-12-10T10:30:53;28.38;;;6.78;;
72951;SDS011;61102;51.956;5.878;2022-12-10T10:33:19;18.75;;;4.00;;
72951;SDS011;61102;51.956;5.878;2022-12-10T10:35:56;27.88;;;6.50;;
72951;SDS011;61102;51.956;5.878;2022-12-10T10:38:26;27.85;;;7.20;;
72951;SDS011;61102;51.956;5.878;2022-12-10T10:40:54;28.55;;;6.63;;
72951;SDS011;61102;51.956;5.878;2022-12-10T10:43:26;26.40;;;6.25;;
72951;SDS011;61102;51.956;5.878;2022-12-10T10:45:54;19.83;;;5.35;;
72951;SDS011;61102;51.956;5.878;2022-12-10T10:48:25;17.92;;;4.32;;
72951;SDS011;61102;51.956;5.878;2022-12-10T10:53:47;26.42;;;7.13;;
72951;SDS011;61102;51.956;5.878;2022-12-10T11:01:48;37.63;;;8.77;;
72951;SDS011;61102;51.956;5.878;2022-12-10T11:07:00;21.08;;;5.65;;
72951;SDS011;61102;51.956;5.878;2022-12-10T11:09:29;17.77;;;4.70;;
72951;SDS011;61102;51.956;5.878;2022-12-10T11:11:59;10.75;;;2.53;;
72951;SDS011;61102;51.956;5.878;2022-12-10T11:14:32;24.48;;;5.03;;
72951;SDS011;61102;51.956;5.878;2022-12-10T11:17:17;27.90;;;7.43;;
72951;SDS011;61102;51.956;5.878;2022-12-10T11:22:49;30.23;;;7.22;;
72951;SDS011;61102;51.956;5.878;2022-12-10T11:25:17;19.23;;;5.03;;
72951;SDS011;61102;51.956;5.878;2022-12-10T11:27:52;21.23;;;4.82;;
72951;SDS011;61102;51.956;5.878;2022-12-10T11:30:21;24.75;;;5.63;;
72951;SDS011;61102;51.956;5.878;2022-12-10T11:35:50;19.95;;;4.57;;
72951;SDS011;61102;51.956;5.878;2022-12-10T11:39:08;14.38;;;3.58;;
72951;SDS011;61102;51.956;5.878;2022-12-10T11:42:00;28.67;;;5.95;;
72951;SDS011;61102;51.956;5.878;2022-12-10T11:44:47;25.20;;;5.50;;
72951;SDS011;61102;51.956;5.878;2022-12-10T12:01:21;27.33;;;6.13;;
72951;SDS011;61102;51.956;5.878;2022-12-10T12:07:06;22.30;;;5.80;;
72951;SDS011;61102;51.956;5.878;2022-12-10T12:09:51;21.95;;;5.13;;
72951;SDS011;61102;51.956;5.878;2022-12-10T12:15:30;21.13;;;4.97;;
72951;SDS011;61102;51.956;5.878;2022-12-10T12:18:11;22.20;;;4.93;;
72951;SDS011;61102;51.956;5.878;2022-12-10T12:20:46;32.92;;;6.57;;
72951;SDS011;61102;51.956;5.878;2022-12-10T12:25:52;25.85;;;6.70;;
72951;SDS011;61102;51.956;5.878;2022-12-10T12:30:53;42.20;;;8.15;;
72951;SDS011;61102;51.956;5.878;2022-12-10T12:33:29;33.53;;;7.22;;
72951;SDS011;61102;51.956;5.878;2022-12-10T12:36:30;24.55;;;6.05;;
72951;SDS011;61102;51.956;5.878;2022-12-10T12:41:50;28.38;;;6.68;;
72951;SDS011;61102;51.956;5.878;2022-12-10T12:44:29;36.03;;;6.50;;
72951;SDS011;61102;51.956;5.878;2022-12-10T12:47:05;27.45;;;5.53;;
72951;SDS011;61102;51.956;5.878;2022-12-10T12:49:42;19.42;;;4.55;;
72951;SDS011;61102;51.956;5.878;2022-12-10T12:55:27;19.35;;;4.30;;
72951;SDS011;61102;51.956;5.878;2022-12-10T12:57:58;27.58;;;5.50;;
72951;SDS011;61102;51.956;5.878;2022-12-10T13:00:29;26.42;;;6.28;;
72951;SDS011;61102;51.956;5.878;2022-12-10T13:03:24;21.35;;;4.40;;
72951;SDS011;61102;51.956;5.878;2022-12-10T13:06:21;19.42;;;3.95;;
72951;SDS011;61102;51.956;5.878;2022-12-10T13:08:52;18.95;;;4.07;;
72951;SDS011;61102;51.956;5.878;2022-12-10T13:11:37;31.25;;;6.10;;
72951;SDS011;61102;51.956;5.878;2022-12-10T13:14:34;29.75;;;6.75;;
72951;SDS011;61102;51.956;5.878;2022-12-10T13:17:27;25.88;;;6.60;;
72951;SDS011;61102;51.956;5.878;2022-12-10T13:22:41;18.02;;;3.78;;
72951;SDS011;61102;51.956;5.878;2022-12-10T13:25:16;33.88;;;6.78;;
72951;SDS011;61102;51.956;5.878;2022-12-10T13:27:56;20.67;;;3.92;;
72951;SDS011;61102;51.956;5.878;2022-12-10T13:30:40;19.60;;;4.40;;
72951;SDS011;61102;51.956;5.878;2022-12-10T13:33:19;14.07;;;3.20;;
72951;SDS011;61102;51.956;5.878;2022-12-10T13:35:51;20.52;;;4.40;;
72951;SDS011;61102;51.956;5.878;2022-12-10T13:38:24;20.15;;;5.43;;
72951;SDS011;61102;51.956;5.878;2022-12-10T13:41:03;22.88;;;5.40;;
72951;SDS011;61102;51.956;5.878;2022-12-10T13:43:54;20.30;;;4.85;;
72951;SDS011;61102;51.956;5.878;2022-12-10T13:46:51;20.30;;;4.10;;
72951;SDS011;61102;51.956;5.878;2022-12-10T13:49:20;28.52;;;7.40;;
72951;SDS011;61102;51.956;5.878;2022-12-10T13:51:54;23.50;;;5.57;;
72951;SDS011;61102;51.956;5.878;2022-12-10T13:54:49;24.30;;;5.20;;
72951;SDS011;61102;51.956;5.878;2022-12-10T13:57:37;27.92;;;6.82;;
72951;SDS011;61102;51.956;5.878;2022-12-10T14:00:19;23.52;;;5.78;;
72951;SDS011;61102;51.956;5.878;2022-12-10T14:05:50;27.00;;;6.18;;
72951;SDS011;61102;51.956;5.878;2022-12-10T14:08:38;26.95;;;4.78;;
72951;SDS011;61102;51.956;5.878;2022-12-10T14:11:10;24.02;;;4.93;;
72951;SDS011;61102;51.956;5.878;2022-12-10T14:13:55;15.63;;;3.33;;
72951;SDS011;61102;51.956;5.878;2022-12-10T14:16:27;17.63;;;4.40;;
72951;SDS011;61102;51.956;5.878;2022-12-10T14:18:59;19.65;;;3.40;;
72951;SDS011;61102;51.956;5.878;2022-12-10T14:21:36;14.02;;;3.70;;
72951;SDS011;61102;51.956;5.878;2022-12-10T14:24:04;19.23;;;3.50;;
72951;SDS011;61102;51.956;5.878;2022-12-10T14:26:32;13.82;;;2.65;;
72951;SDS011;61102;51.956;5.878;2022-12-10T14:29:22;15.35;;;3.22;;
72951;SDS011;61102;51.956;5.878;2022-12-10T14:31:48;18.83;;;4.07;;
72951;SDS011;61102;51.956;5.878;2022-12-10T14:34:21;18.60;;;4.68;;
72951;SDS011;61102;51.956;5.878;2022-12-10T14:36:51;19.55;;;5.22;;
72951;SDS011;61102;51.956;5.878;2022-12-10T14:39:21;16.92;;;4.30;;
72951;SDS011;61102;51.956;5.878;2022-12-10T14:41:51;17.58;;;3.72;;
72951;SDS011;61102;51.956;5.878;2022-12-10T14:44:23;19.70;;;5.70;;
72951;SDS011;61102;51.956;5.878;2022-12-10T14:46:50;20.08;;;4.88;;
72951;SDS011;61102;51.956;5.878;2022-12-10T14:49:20;18.58;;;4.18;;
72951;SDS011;61102;51.956;5.878;2022-12-10T14:51:55;18.55;;;4.65;;
72951;SDS011;61102;51.956;5.878;2022-12-10T14:54:32;19.85;;;4.63;;
72951;SDS011;61102;51.956;5.878;2022-12-10T14:57:04;21.27;;;5.43;;
72951;SDS011;61102;51.956;5.878;2022-12-10T14:59:43;15.23;;;3.90;;
72951;SDS011;61102;51.956;5.878;2022-12-10T15:02:30;17.45;;;3.38;;
72951;SDS011;61102;51.956;5.878;2022-12-10T15:05:03;16.67;;;4.40;;
72951;SDS011;61102;51.956;5.878;2022-12-10T15:07:41;19.23;;;3.75;;
72951;SDS011;61102;51.956;5.878;2022-12-10T15:10:10;18.52;;;3.70;;
72951;SDS011;61102;51.956;5.878;2022-12-10T15:12:47;22.30;;;4.47;;
72951;SDS011;61102;51.956;5.878;2022-12-10T15:25:44;13.50;;;3.00;;
72951;SDS011;61102;51.956;5.878;2022-12-10T15:31:19;17.52;;;3.80;;
72951;SDS011;61102;51.956;5.878;2022-12-10T15:33:54;19.48;;;3.78;;
72951;SDS011;61102;51.956;5.878;2022-12-10T15:38:56;13.93;;;3.92;;
72951;SDS011;61102;51.956;5.878;2022-12-10T15:47:12;16.60;;;4.13;;
72951;SDS011;61102;51.956;5.878;2022-12-10T15:49:42;15.43;;;3.30;;
72951;SDS011;61102;51.956;5.878;2022-12-10T15:52:13;15.25;;;2.65;;
72951;SDS011;61102;51.956;5.878;2022-12-10T15:54:41;15.20;;;3.55;;
72951;SDS011;61102;51.956;5.878;2022-12-10T15:59:47;13.35;;;2.63;;
72951;SDS011;61102;51.956;5.878;2022-12-10T16:07:42;18.13;;;4.10;;
72951;SDS011;61102;51.956;5.878;2022-12-10T16:10:09;13.48;;;2.78;;
72951;SDS011;61102;51.956;5.878;2022-12-10T16:12:37;8.98;;;2.00;;
72951;SDS011;61102;51.956;5.878;2022-12-10T16:15:04;13.63;;;3.00;;
72951;SDS011;61102;51.956;5.878;2022-12-10T16:17:32;12.80;;;2.58;;
72951;SDS011;61102;51.956;5.878;2022-12-10T16:20:44;31.42;;;5.15;;
72951;SDS011;61102;51.956;5.878;2022-12-10T16:22:53;12.75;;;3.38;;
72951;SDS011;61102;51.956;5.878;2022-12-10T16:25:20;13.45;;;3.08;;
72951;SDS011;61102;51.956;5.878;2022-12-10T16:27:47;19.00;;;3.85;;
72951;SDS011;61102;51.956;5.878;2022-12-10T16:30:16;11.88;;;2.80;;
72951;SDS011;61102;51.956;5.878;2022-12-10T16:32:46;10.13;;;2.25;;
72951;SDS011;61102;51.956;5.878;2022-12-10T16:35:13;10.77;;;2.22;;
72951;SDS011;61102;51.956;5.878;2022-12-10T16:37:42;12.23;;;2.42;;
72951;SDS011;61102;51.956;5.878;2022-12-10T16:40:13;16.83;;;3.65;;
72951;SDS011;61102;51.956;5.878;2022-12-10T16:42:40;14.05;;;2.47;;
72951;SDS011;61102;51.956;5.878;2022-12-10T16:45:13;10.00;;;1.90;;
72951;SDS011;61102;51.956;5.878;2022-12-10T16:47:43;13.38;;;2.50;;
72951;SDS011;61102;51.956;5.878;2022-12-10T16:50:10;9.25;;;2.17;;
72951;SDS011;61102;51.956;5.878;2022-12-10T16:52:38;13.45;;;2.72;;
72951;SDS011;61102;51.956;5.878;2022-12-10T16:55:05;16.23;;;3.53;;
72951;SDS011;61102;51.956;5.878;2022-12-10T16:59:59;10.43;;;1.70;;
72951;SDS011;61102;51.956;5.878;2022-12-10T17:02:25;15.07;;;3.38;;
72951;SDS011;61102;51.956;5.878;2022-12-10T17:04:51;14.25;;;3.20;;
72951;SDS011;61102;51.956;5.878;2022-12-10T17:07:17;17.52;;;3.45;;
72951;SDS011;61102;51.956;5.878;2022-12-10T17:09:43;11.65;;;2.65;;
72951;SDS011;61102;51.956;5.878;2022-12-10T17:12:09;11.00;;;2.25;;